Aérodrome :







RETROUVEZ-NOUS SUR...

 
LOGIN :

S'inscrire | Disclaimer

   EN    FR    IT 

 









Légende :    VFR   VFR Marginal   IFR   IFR Intensif   IFR Très Intensif
Visi : 
Plafond : 
>= 8 km
>= 3000ft
5 à 8 km
1000 à 3000 ft
1500m à 5 km
500 à 1000 ft
800 à 1500m
200 à 500 ft
< 800m
< 200 ft
Symboles :   Orages  Brouillard  Fortes neiges  Fortes précipitations  Vent > 20 kt







- Altitude de l'aérodrome : 228 ft


KFSO - Franklin County State

DERNIER METAR :
  • 162355Z AUTO 00000KT 10SM CLR 15/11 A3006 RMK AO2 T01470111 10215 20147

METARs EXPIRÉS :
  • 162336Z AUTO 00000KT 7SM CLR 15/12 A3006 RMK AO2 T01470115
  • 162316Z AUTO 00000KT 10SM CLR 16/11 A3006 RMK AO2 T01590114
  • 162255Z AUTO 00000KT 10SM CLR 17/10 A3006 RMK AO2 T01730104
  • 162236Z AUTO 00000KT 10SM CLR 19/10 A3005 RMK AO2 T01870102
  • 162215Z AUTO 00000KT 10SM CLR 20/10 A3005 RMK AO2 T01990100
  • 162156Z AUTO 27004KT 10SM CLR 20/09 A3005 RMK AO2 T02030094
  • 162135Z AUTO 29004KT 10SM SCT055 21/09 A3005 RMK AO2 T02060092
  • 162115Z AUTO 28003KT 10SM SCT055 21/09 A3005 RMK AO2 T02070088

TAF N/A
Pas de NOTAMs connus pour ce terrain.



MET'MAP, la Météo Aéronautique d'un coup d'oeil ! - Copyright ORBIFLY Décembre 2007 - Disclaimer

ORBIFLY MET'MAP TEAM :

Programmation & Développement : Alexandra Zaïnal
Conception & Développement : Baudouin d'Aumeries
Co-Programmation & Développement : Marc-Olivier Méhu
Soutien technique & logistique : Manuel Goepfert

Contact : metmap@orbifly.com




SOURCES & CREDITS :

   NOAA